Time;durP1;ratioP1;P1;durP2;ratioP2;P2;SDS_P1;SDS_P2;PMS_P1;PMS_P2;Temp;Humidity;BMP_temperature;BMP_pressure;BME280_temperature;BME280_humidity;BME280_pressure;Samples;Min_cycle;Max_cycle;Signal;HPM_P1;HPM_P2
2023/10/09 00:00:50;;;;;;;19.00;11.30;;;17.10;22.10;;;;;;5010340;28;20440;-54
2023/10/09 00:03:23;;;;;;;20.73;10.23;;;17.10;22.30;;;;;;5010890;28;20520;-53
2023/10/09 00:05:52;;;;;;;11.90;9.20;;;17.00;22.40;;;;;;5004017;28;20425;-64
2023/10/09 00:08:21;;;;;;;15.27;10.40;;;17.00;22.50;;;;;;5011008;28;20485;-64
2023/10/09 00:10:57;;;;;;;23.67;10.90;;;17.10;22.50;;;;;;5008778;28;20515;-64
2023/10/09 00:13:32;;;;;;;12.93;9.00;;;17.10;22.50;;;;;;5007075;28;21801;-64
2023/10/09 00:16:13;;;;;;;12.27;9.90;;;17.10;22.60;;;;;;5011097;28;20432;-64
2023/10/09 00:18:39;;;;;;;15.97;10.97;;;17.10;22.60;;;;;;5011781;28;20966;-64
2023/10/09 00:21:27;;;;;;;13.27;10.80;;;17.10;22.50;;;;;;5011399;28;20519;-64
2023/10/09 00:23:55;;;;;;;13.03;9.30;;;17.00;22.60;;;;;;5008768;28;20420;-64
2023/10/09 00:26:21;;;;;;;16.13;10.33;;;17.00;22.70;;;;;;5010228;28;20424;-64
2023/10/09 00:28:47;;;;;;;15.90;9.60;;;17.00;22.60;;;;;;5008695;28;20421;-64
2023/10/09 00:31:33;;;;;;;13.00;9.67;;;17.00;22.50;;;;;;5009692;28;20764;-63
2023/10/09 00:34:01;;;;;;;15.40;10.47;;;17.00;22.50;;;;;;5011171;28;20471;-64
2023/10/09 00:36:28;;;;;;;12.50;9.77;;;17.00;22.50;;;;;;5004698;28;20420;-65
2023/10/09 00:38:54;;;;;;;13.03;10.07;;;17.10;22.70;;;;;;5011139;28;20409;-64
2023/10/09 00:41:21;;;;;;;13.53;9.83;;;17.00;22.60;;;;;;5005374;28;20435;-65
2023/10/09 00:43:49;;;;;;;13.20;10.53;;;17.00;22.70;;;;;;5008198;28;20531;-64
2023/10/09 00:48:51;;;;;;;13.73;10.20;;;17.00;23.00;;;;;;5012090;28;20793;-65
2023/10/09 00:51:18;;;;;;;13.50;9.87;;;16.90;22.70;;;;;;5009054;28;20522;-65
2023/10/09 00:53:54;;;;;;;17.03;10.23;;;16.90;22.60;;;;;;5010664;28;20471;-65
2023/10/09 00:59:06;;;;;;;15.00;10.20;;;16.80;22.60;;;;;;5011921;28;20924;-64
2023/10/09 01:01:36;;;;;;;14.13;9.77;;;16.90;22.60;;;;;;5000317;28;20427;-65
2023/10/09 01:04:17;;;;;;;11.60;10.37;;;16.80;22.50;;;;;;5009326;28;20421;-65
2023/10/09 01:06:44;;;;;;;16.00;9.27;;;16.90;22.60;;;;;;5009552;28;20775;-65
2023/10/09 01:09:15;;;;;;;18.40;10.00;;;16.90;22.60;;;;;;5008152;28;20452;-65
2023/10/09 01:12:02;;;;;;;14.93;9.80;;;16.90;22.70;;;;;;5007063;28;20418;-65
2023/10/09 01:14:28;;;;;;;12.07;10.30;;;16.80;22.70;;;;;;4999888;28;20449;-65
2023/10/09 01:16:54;;;;;;;15.30;9.80;;;16.80;22.60;;;;;;5004244;28;20721;-65
2023/10/09 01:19:30;;;;;;;17.57;10.13;;;16.80;22.50;;;;;;5008658;28;20421;-65
2023/10/09 01:22:04;;;;;;;15.73;10.27;;;16.80;22.40;;;;;;5010273;28;20441;-65
2023/10/09 01:24:31;;;;;;;13.33;10.20;;;16.90;22.30;;;;;;5006756;28;20428;-65
2023/10/09 01:26:59;;;;;;;20.87;10.20;;;16.90;22.40;;;;;;5007411;28;20510;-65
2023/10/09 01:29:29;;;;;;;16.43;9.90;;;16.90;22.40;;;;;;5009209;28;20416;-65
2023/10/09 01:31:56;;;;;;;21.90;9.37;;;16.90;22.40;;;;;;5003111;28;20471;-64
2023/10/09 01:37:28;;;;;;;13.50;9.07;;;16.90;22.20;;;;;;5008769;28;20496;-65
2023/10/09 01:39:59;;;;;;;12.50;9.90;;;16.90;22.30;;;;;;5005414;28;20418;-65
2023/10/09 01:42:34;;;;;;;14.00;10.00;;;17.00;22.10;;;;;;5006864;28;20431;-64
2023/10/09 01:47:58;;;;;;;12.10;10.30;;;17.00;22.50;;;;;;5018289;28;20448;-56
2023/10/09 01:50:30;;;;;;;11.43;9.83;;;17.00;22.40;;;;;;5008032;28;20603;-56
2023/10/09 01:52:56;;;;;;;13.10;9.87;;;16.90;22.60;;;;;;5005909;28;20215;-56
2023/10/09 01:58:05;;;;;;;14.60;9.40;;;16.90;22.70;;;;;;5011320;28;20424;-56
2023/10/09 02:00:35;;;;;;;12.00;9.73;;;16.90;22.60;;;;;;5009681;28;20428;-55
2023/10/09 02:03:04;;;;;;;18.23;9.80;;;16.90;22.70;;;;;;5003792;28;20792;-55
2023/10/09 02:05:33;;;;;;;16.40;10.17;;;16.90;22.80;;;;;;5006801;28;20443;-54
2023/10/09 02:07:59;;;;;;;14.20;10.13;;;16.90;23.30;;;;;;5006684;28;20791;-55
2023/10/09 02:12:57;;;;;;;15.03;10.37;;;17.00;22.70;;;;;;5010469;28;20209;-54
2023/10/09 02:18:18;;;;;;;15.57;9.43;;;17.00;22.80;;;;;;5011071;28;20430;-55
2023/10/09 02:21:06;;;;;;;11.57;10.33;;;16.90;22.60;;;;;;5005836;28;20482;-55
2023/10/09 02:26:33;;;;;;;17.63;10.60;;;16.90;22.80;;;;;;5009839;28;20424;-55
2023/10/09 02:28:58;;;;;;;23.87;9.80;;;16.90;22.70;;;;;;5001840;28;20795;-64
2023/10/09 02:31:27;;;;;;;12.50;9.60;;;16.90;22.80;;;;;;5008264;28;20433;-64
2023/10/09 02:33:55;;;;;;;15.77;9.50;;;16.90;22.70;;;;;;5009098;28;20240;-64
2023/10/09 02:36:22;;;;;;;12.90;9.90;;;16.90;22.60;;;;;;5009111;28;20511;-64
2023/10/09 02:38:48;;;;;;;14.07;10.03;;;16.90;22.60;;;;;;5005960;28;20417;-64
2023/10/09 02:43:47;;;;;;;12.23;10.20;;;16.90;22.50;;;;;;5010573;28;20893;-56
2023/10/09 02:46:19;;;;;;;15.80;10.80;;;16.90;22.40;;;;;;5009013;28;21035;-55
2023/10/09 02:48:52;;;;;;;16.00;9.70;;;16.90;22.50;;;;;;5009272;28;20435;-55
2023/10/09 02:51:32;;;;;;;11.63;9.17;;;16.90;22.30;;;;;;5009536;28;20412;-54
2023/10/09 02:54:06;;;;;;;20.97;11.47;;;16.90;22.40;;;;;;5009623;28;20460;-55
2023/10/09 02:59:21;;;;;;;22.30;10.50;;;16.90;22.60;;;;;;4989892;28;20423;-56
2023/10/09 03:01:48;;;;;;;16.53;9.47;;;16.90;22.60;;;;;;5005994;28;20488;-55
2023/10/09 03:04:14;;;;;;;13.27;10.30;;;17.00;22.70;;;;;;5009015;28;20558;-65
2023/10/09 03:06:49;;;;;;;19.90;10.87;;;16.90;22.50;;;;;;5008455;28;20435;-64
2023/10/09 03:09:16;;;;;;;16.83;11.20;;;17.00;22.50;;;;;;5008468;28;20511;-65
2023/10/09 03:11:53;;;;;;;14.30;10.90;;;17.00;22.40;;;;;;5001062;28;20436;-64
2023/10/09 03:14:24;;;;;;;15.30;10.77;;;17.00;22.30;;;;;;5008589;28;20506;-64
2023/10/09 03:16:50;;;;;;;19.97;11.80;;;17.00;22.30;;;;;;5010044;28;20475;-65
2023/10/09 03:19:16;;;;;;;19.00;11.00;;;17.00;22.40;;;;;;5009353;28;20934;-65
2023/10/09 03:21:42;;;;;;;13.57;9.90;;;17.00;22.50;;;;;;5012488;28;20439;-65
2023/10/09 03:24:08;;;;;;;15.90;10.43;;;17.00;22.50;;;;;;5012481;28;20942;-65
2023/10/09 03:26:34;;;;;;;16.37;10.20;;;16.90;22.60;;;;;;5001544;28;20182;-65
2023/10/09 03:29:06;;;;;;;14.90;10.60;;;16.90;22.60;;;;;;5006630;28;20236;-65
2023/10/09 03:31:36;;;;;;;14.80;10.43;;;16.90;22.60;;;;;;5011008;28;20444;-65
2023/10/09 03:34:03;;;;;;;20.27;10.30;;;17.00;22.30;;;;;;5011993;28;20499;-65
2023/10/09 03:36:30;;;;;;;11.70;10.43;;;16.90;22.20;;;;;;5010245;28;20783;-65
2023/10/09 03:38:58;;;;;;;13.73;9.80;;;16.90;22.30;;;;;;5011210;28;20912;-56
2023/10/09 03:41:26;;;;;;;23.60;11.70;;;17.00;22.30;;;;;;5010847;28;20420;-56
2023/10/09 03:43:54;;;;;;;16.03;10.83;;;17.00;22.30;;;;;;5010733;28;20925;-65
2023/10/09 03:46:21;;;;;;;16.97;11.33;;;16.90;22.30;;;;;;5011198;28;20424;-65
2023/10/09 03:48:52;;;;;;;13.80;11.87;;;16.90;22.40;;;;;;5010660;28;20448;-65
2023/10/09 03:51:26;;;;;;;16.50;12.30;;;16.90;22.30;;;;;;5010757;28;20584;-63
2023/10/09 03:53:52;;;;;;;21.07;12.70;;;16.90;22.30;;;;;;5009622;28;20463;-63
2023/10/09 03:56:21;;;;;;;14.33;11.53;;;16.90;22.40;;;;;;5008178;28;20446;-64
2023/10/09 03:58:54;;;;;;;11.90;10.70;;;16.90;22.40;;;;;;5009902;28;20428;-64
2023/10/09 04:01:37;;;;;;;16.20;11.13;;;16.90;22.60;;;;;;5010888;28;20452;-65
2023/10/09 04:04:05;;;;;;;16.10;10.97;;;16.90;22.60;;;;;;5011116;28;20436;-64
2023/10/09 04:06:32;;;;;;;12.40;11.10;;;16.90;22.70;;;;;;5006152;28;20432;-64
2023/10/09 04:11:47;;;;;;;18.40;11.77;;;16.90;22.80;;;;;;5004774;28;20424;-65
2023/10/09 04:14:32;;;;;;;13.50;10.13;;;16.90;22.90;;;;;;5004161;28;20432;-64
2023/10/09 04:17:32;;;;;;;15.93;11.23;;;16.90;22.90;;;;;;5007773;28;20508;-64
2023/10/09 04:22:50;;;;;;;16.07;13.57;;;16.90;22.80;;;;;;5011984;28;20423;-62
2023/10/09 04:25:26;;;;;;;11.63;10.50;;;16.90;23.40;;;;;;5010582;28;20427;-61
2023/10/09 04:30:42;;;;;;;14.30;10.83;;;16.90;22.90;;;;;;5001190;28;20468;-61
2023/10/09 04:33:27;;;;;;;12.53;11.23;;;16.90;22.90;;;;;;5003741;28;20550;-61
2023/10/09 04:36:45;;;;;;;16.03;11.10;;;16.90;22.90;;;;;;5010101;28;20507;-62
2023/10/09 04:41:27;;;;;;;18.50;10.60;;;16.80;23.00;;;;;;5010768;28;20454;-53
2023/10/09 04:44:04;;;;;;;13.97;10.70;;;16.80;22.80;;;;;;5009434;28;20181;-50
2023/10/09 04:46:43;;;;;;;15.30;10.27;;;16.80;22.70;;;;;;5008047;28;20689;-50
2023/10/09 04:49:27;;;;;;;15.93;10.83;;;16.90;22.70;;;;;;5006597;28;20436;-51
2023/10/09 04:52:09;;;;;;;10.77;9.67;;;16.80;22.70;;;;;;5004033;28;20464;-53
2023/10/09 04:55:02;;;;;;;15.50;11.17;;;16.90;22.70;;;;;;5008831;28;20443;-49
2023/10/09 04:57:26;;;;;;;13.27;10.23;;;16.90;22.70;;;;;;5008356;28;20925;-53
2023/10/09 04:59:52;;;;;;;12.40;11.10;;;16.90;23.00;;;;;;5002911;28;20414;-49
2023/10/09 05:02:23;;;;;;;16.93;11.57;;;16.90;22.90;;;;;;5006571;28;21070;-50
2023/10/09 05:05:01;;;;;;;14.63;12.13;;;16.90;23.00;;;;;;5009364;28;20696;-54
2023/10/09 05:07:54;;;;;;;16.03;11.00;;;16.90;23.10;;;;;;5003383;28;20425;-54
2023/10/09 05:10:24;;;;;;;15.07;12.20;;;16.90;23.00;;;;;;5004051;28;20988;-51
2023/10/09 05:12:56;;;;;;;19.23;12.30;;;16.90;23.00;;;;;;5005014;28;20777;-50
2023/10/09 05:15:29;;;;;;;12.00;11.00;;;16.90;23.10;;;;;;5009170;28;20424;-50
2023/10/09 05:17:56;;;;;;;13.07;11.63;;;16.90;23.10;;;;;;5008541;28;20439;-51
2023/10/09 05:22:58;;;;;;;13.80;11.90;;;16.90;23.10;;;;;;5009525;28;20987;-54
2023/10/09 05:31:08;;;;;;;16.17;10.97;;;16.90;23.10;;;;;;5005861;28;20474;-54
2023/10/09 05:33:38;;;;;;;16.37;11.07;;;16.80;23.30;;;;;;5009527;28;20463;-52
2023/10/09 05:36:14;;;;;;;13.43;12.13;;;16.80;23.40;;;;;;5000473;28;20429;-53
2023/10/09 05:38:46;;;;;;;11.70;10.73;;;16.80;23.70;;;;;;5006631;28;20423;-53
2023/10/09 05:41:31;;;;;;;13.27;11.90;;;16.90;23.80;;;;;;5006361;28;20436;-55
2023/10/09 05:47:04;;;;;;;18.77;10.37;;;16.80;23.70;;;;;;5001500;28;20925;-56
2023/10/09 05:49:45;;;;;;;14.90;12.40;;;16.80;23.70;;;;;;5007839;28;20482;-53
2023/10/09 05:58:53;;;;;;;13.37;12.07;;;16.90;23.80;;;;;;5010597;28;20423;-55
2023/10/09 06:09:09;;;;;;;14.53;12.97;;;17.00;23.60;;;;;;5010056;28;20424;-56
2023/10/09 06:14:04;;;;;;;17.93;12.57;;;17.00;23.50;;;;;;5003853;28;20468;-54
2023/10/09 06:19:12;;;;;;;13.10;11.47;;;17.00;23.70;;;;;;5009297;28;20423;-55
2023/10/09 06:24:33;;;;;;;16.80;11.80;;;17.00;23.70;;;;;;5002981;28;20470;-54
2023/10/09 06:34:46;;;;;;;14.30;12.13;;;16.90;23.80;;;;;;5005003;28;20460;-56
2023/10/09 06:42:43;;;;;;;16.50;12.57;;;17.00;23.80;;;;;;5010845;28;20927;-57
2023/10/09 06:50:56;;;;;;;15.77;12.43;;;17.10;23.70;;;;;;5030229;28;20403;-66
2023/10/09 06:53:28;;;;;;;16.50;12.47;;;17.10;23.90;;;;;;5009575;28;20475;-66
2023/10/09 06:56:06;;;;;;;14.77;12.20;;;17.10;23.90;;;;;;5012966;28;20421;-66
2023/10/09 06:58:41;;;;;;;13.37;12.03;;;17.10;24.50;;;;;;5012518;28;20424;-66
2023/10/09 07:01:25;;;;;;;17.00;12.53;;;17.10;24.00;;;;;;5009540;28;20424;-66
2023/10/09 07:03:54;;;;;;;13.77;12.20;;;17.10;23.90;;;;;;5010132;28;20432;-66
2023/10/09 07:06:23;;;;;;;17.53;12.47;;;17.10;23.90;;;;;;5010211;28;20465;-66
2023/10/09 07:17:00;;;;;;;16.67;13.17;;;17.30;23.80;;;;;;5009259;28;20602;-65
2023/10/09 07:25:14;;;;;;;14.60;12.70;;;17.30;23.50;;;;;;5013845;28;20412;-65
2023/10/09 07:27:48;;;;;;;14.40;12.27;;;17.30;23.30;;;;;;5012130;28;20503;-66
2023/10/09 07:38:55;;;;;;;14.90;11.50;;;17.40;23.40;;;;;;5003166;28;20417;-66
2023/10/09 07:46:32;;;;;;;13.00;11.70;;;17.40;23.20;;;;;;5009170;28;20185;-66
2023/10/09 07:49:21;;;;;;;14.47;12.57;;;17.50;23.30;;;;;;5007080;28;20440;-66
2023/10/09 07:51:46;;;;;;;17.50;11.63;;;17.50;23.40;;;;;;5011844;28;20474;-65
2023/10/09 07:54:15;;;;;;;15.77;12.17;;;17.50;23.10;;;;;;5011990;28;20878;-66
2023/10/09 07:56:43;;;;;;;19.73;12.40;;;17.50;23.20;;;;;;5010229;28;20178;-65
2023/10/09 07:59:12;;;;;;;13.97;11.30;;;17.60;23.50;;;;;;5011530;28;21019;-65
2023/10/09 08:01:52;;;;;;;16.70;12.10;;;17.60;23.60;;;;;;5010296;28;20421;-65
2023/10/09 08:04:37;;;;;;;13.90;12.43;;;17.60;23.60;;;;;;5004312;28;20423;-65
2023/10/09 08:07:19;;;;;;;19.03;12.00;;;17.70;23.60;;;;;;5009524;28;20504;-65
2023/10/09 08:09:48;;;;;;;19.00;12.30;;;17.70;23.70;;;;;;5011531;28;20633;-65
2023/10/09 08:17:53;;;;;;;24.30;13.30;;;17.80;22.90;;;;;;5012937;28;20470;-66
2023/10/09 08:20:25;;;;;;;23.93;14.87;;;17.80;23.50;;;;;;5011665;28;20415;-66
2023/10/09 08:22:55;;;;;;;25.20;14.10;;;17.90;22.90;;;;;;5011743;28;20928;-65
2023/10/09 08:25:28;;;;;;;19.27;13.00;;;17.90;22.80;;;;;;5008430;28;20443;-66
2023/10/09 08:27:55;;;;;;;18.30;12.90;;;18.00;22.50;;;;;;5004727;28;20420;-65
2023/10/09 08:33:00;;;;;;;18.97;12.97;;;18.00;22.90;;;;;;5012491;28;20467;-65
2023/10/09 08:35:49;;;;;;;14.77;12.93;;;18.00;23.20;;;;;;5011567;28;20420;-65
2023/10/09 08:38:17;;;;;;;21.73;14.07;;;18.00;22.50;;;;;;5011773;28;20424;-65
2023/10/09 08:40:45;;;;;;;19.67;13.43;;;18.10;22.10;;;;;;5010008;28;20422;-65
2023/10/09 08:43:17;;;;;;;22.53;13.60;;;18.10;22.60;;;;;;5010489;28;20412;-65
2023/10/09 08:46:04;;;;;;;19.57;13.50;;;18.20;22.60;;;;;;5011189;28;20546;-65
2023/10/09 08:48:30;;;;;;;14.43;12.80;;;18.20;22.90;;;;;;5008883;28;20440;-66
2023/10/09 08:50:56;;;;;;;19.53;13.50;;;18.20;23.20;;;;;;5011770;28;20420;-65
2023/10/09 08:53:24;;;;;;;15.37;11.47;;;18.20;23.60;;;;;;5011368;28;20300;-66
2023/10/09 08:55:51;;;;;;;16.97;13.73;;;18.30;23.60;;;;;;5011001;28;20417;-66
2023/10/09 08:58:36;;;;;;;21.97;14.20;;;18.30;23.50;;;;;;5011307;28;20424;-65
2023/10/09 09:01:02;;;;;;;23.20;19.90;;;18.40;22.70;;;;;;5001833;28;20504;-65
2023/10/09 09:03:43;;;;;;;22.43;14.50;;;18.40;22.90;;;;;;5007607;28;20507;-66
2023/10/09 09:06:09;;;;;;;19.80;13.20;;;18.50;22.70;;;;;;5004545;28;20189;-66
2023/10/09 09:08:37;;;;;;;14.83;13.10;;;18.50;22.60;;;;;;5009939;28;21345;-66
2023/10/09 09:13:49;;;;;;;17.63;14.13;;;18.60;22.90;;;;;;5009365;28;20502;-59
2023/10/09 09:16:29;;;;;;;20.07;13.07;;;18.60;23.00;;;;;;5010734;28;20452;-59
2023/10/09 09:19:03;;;;;;;16.07;13.50;;;18.60;22.80;;;;;;5003321;28;20424;-66
2023/10/09 09:21:29;;;;;;;19.27;14.30;;;18.70;22.90;;;;;;5000684;28;20496;-65
2023/10/09 09:24:14;;;;;;;22.27;13.67;;;18.70;23.00;;;;;;4999466;28;20425;-65
2023/10/09 09:26:45;;;;;;;16.33;13.03;;;18.70;23.20;;;;;;5006408;28;20959;-66
2023/10/09 09:29:12;;;;;;;15.50;12.30;;;18.80;22.90;;;;;;5011730;28;20420;-65
2023/10/09 09:31:38;;;;;;;25.70;13.33;;;18.80;22.80;;;;;;5009934;28;20515;-65
2023/10/09 09:34:13;;;;;;;25.47;13.00;;;18.90;22.40;;;;;;5006787;28;20535;-59
2023/10/09 09:36:53;;;;;;;22.83;12.60;;;18.90;22.10;;;;;;5010000;28;20189;-65
2023/10/09 09:39:26;;;;;;;20.13;13.07;;;18.90;21.40;;;;;;5010947;28;20424;-66
2023/10/09 09:41:57;;;;;;;17.80;12.67;;;19.00;21.00;;;;;;5004917;28;20929;-66
2023/10/09 09:44:30;;;;;;;20.33;14.03;;;19.10;21.70;;;;;;5010948;28;20425;-65
2023/10/09 09:46:59;;;;;;;17.20;13.73;;;19.10;22.20;;;;;;5006904;28;20444;-65
2023/10/09 09:49:31;;;;;;;15.90;12.33;;;19.10;22.70;;;;;;5006538;28;20555;-67
2023/10/09 09:52:00;;;;;;;19.90;13.30;;;19.10;22.70;;;;;;5010229;28;20427;-66
2023/10/09 09:54:27;;;;;;;20.00;13.53;;;19.20;21.20;;;;;;5010013;28;20432;-66
2023/10/09 09:56:55;;;;;;;20.63;14.73;;;19.20;21.10;;;;;;5010202;28;20439;-66
2023/10/09 09:59:27;;;;;;;27.17;14.30;;;19.20;21.20;;;;;;5010184;28;20789;-66
2023/10/09 10:01:57;;;;;;;25.73;12.73;;;19.20;21.20;;;;;;5009491;28;20428;-65
2023/10/09 10:04:26;;;;;;;15.27;11.53;;;19.20;21.20;;;;;;5001778;28;20784;-66
2023/10/09 10:06:55;;;;;;;21.33;11.57;;;19.30;21.30;;;;;;5008839;28;20432;-64
2023/10/09 10:09:48;;;;;;;18.73;11.63;;;19.30;21.80;;;;;;5009764;28;20967;-64
2023/10/09 10:12:17;;;;;;;21.97;12.17;;;19.30;21.40;;;;;;5009049;28;20515;-65
2023/10/09 10:14:59;;;;;;;19.40;12.47;;;19.30;22.00;;;;;;5007773;28;20429;-65
2023/10/09 10:17:27;;;;;;;18.10;12.90;;;19.30;21.70;;;;;;5006551;28;20486;-66
2023/10/09 10:22:50;;;;;;;28.40;13.40;;;19.40;21.60;;;;;;5009947;28;20456;-67
2023/10/09 10:25:41;;;;;;;20.67;12.50;;;19.40;21.30;;;;;;5008549;28;20471;-57
2023/10/09 10:28:45;;;;;;;20.40;12.73;;;19.50;21.30;;;;;;5009121;28;20563;-57
2023/10/09 10:31:11;;;;;;;23.00;13.47;;;19.50;21.30;;;;;;5010593;28;20420;-58
2023/10/09 10:33:54;;;;;;;18.73;13.10;;;19.60;20.70;;;;;;5010252;28;20460;-57
2023/10/09 10:36:26;;;;;;;21.20;11.63;;;19.60;20.70;;;;;;5010536;28;20416;-58
2023/10/09 10:39:11;;;;;;;16.93;10.63;;;19.80;16.90;;;;;;5009376;28;20431;-58
2023/10/09 10:41:50;;;;;;;17.47;10.90;;;20.00;17.10;;;;;;5006539;28;20424;-58
2023/10/09 10:44:34;;;;;;;20.43;11.70;;;20.10;16.20;;;;;;4995549;28;20444;-57
2023/10/09 10:47:00;;;;;;;16.97;9.50;;;20.20;16.30;;;;;;4990108;28;20444;-57
2023/10/09 10:49:36;;;;;;;20.50;10.57;;;20.30;15.10;;;;;;4991208;28;20840;-58
2023/10/09 10:52:18;;;;;;;15.80;10.13;;;20.30;15.00;;;;;;5005709;28;20429;-58
2023/10/09 10:57:19;;;;;;;19.17;11.83;;;20.40;14.50;;;;;;4990722;28;20405;-58
2023/10/09 10:59:45;;;;;;;15.67;9.83;;;20.40;14.50;;;;;;4990049;28;20665;-57
2023/10/09 11:04:40;;;;;;;20.83;10.60;;;20.40;13.40;;;;;;4991427;28;20421;-57
2023/10/09 11:10:27;;;;;;;12.07;10.77;;;20.50;13.40;;;;;;4991464;28;20777;-57
2023/10/09 11:12:55;;;;;;;21.03;10.80;;;20.50;13.60;;;;;;4990332;28;20574;-58
2023/10/09 11:15:44;;;;;;;16.37;11.20;;;20.50;13.40;;;;;;4990387;28;20420;-57
2023/10/09 11:21:22;;;;;;;22.03;11.07;;;20.60;13.90;;;;;;4992435;28;20417;-57
2023/10/09 11:23:57;;;;;;;12.00;10.50;;;20.60;14.50;;;;;;4991003;28;20786;-57
2023/10/09 11:26:28;;;;;;;18.77;11.03;;;20.60;13.80;;;;;;4990673;28;20425;-57
2023/10/09 11:32:05;;;;;;;13.70;9.87;;;20.90;11.30;;;;;;4999356;28;20429;-56
2023/10/09 11:34:32;;;;;;;12.00;10.80;;;21.00;11.90;;;;;;5009586;28;20428;-56
2023/10/09 11:37:02;;;;;;;13.70;10.73;;;21.10;10.20;;;;;;5010934;28;20546;-57
2023/10/09 11:39:35;;;;;;;20.60;12.23;;;21.10;11.30;;;;;;5013737;28;20896;-56
2023/10/09 11:42:05;;;;;;;11.83;10.67;;;21.10;11.90;;;;;;5013239;28;20852;-57
2023/10/09 11:44:45;;;;;;;16.10;11.63;;;21.00;10.80;;;;;;5010619;28;20449;-56
2023/10/09 11:50:11;;;;;;;10.67;9.57;;;20.90;11.50;;;;;;5008551;28;20424;-66
2023/10/09 11:53:08;;;;;;;12.13;10.90;;;20.90;11.40;;;;;;5013382;28;20517;-66
2023/10/09 11:55:35;;;;;;;14.47;11.03;;;20.80;11.70;;;;;;5013013;28;20910;-66
2023/10/09 11:58:02;;;;;;;15.10;13.50;;;20.80;11.90;;;;;;5013438;28;20416;-66
2023/10/09 12:00:32;;;;;;;16.00;10.90;;;20.70;11.90;;;;;;5013468;28;21019;-67
2023/10/09 12:03:05;;;;;;;12.33;10.60;;;20.60;11.40;;;;;;5013516;28;20796;-67
2023/10/09 12:05:31;;;;;;;15.43;11.70;;;20.60;13.50;;;;;;5012799;28;20432;-67
2023/10/09 12:07:59;;;;;;;15.83;13.00;;;20.60;13.50;;;;;;5015072;28;20503;-63
2023/10/09 12:10:25;;;;;;;14.63;12.20;;;20.50;14.10;;;;;;5012785;28;20508;-64
2023/10/09 12:12:57;;;;;;;13.87;12.57;;;20.50;14.30;;;;;;5013297;28;20771;-63
2023/10/09 12:15:24;;;;;;;13.60;12.20;;;20.50;14.50;;;;;;5004549;28;20421;-64
2023/10/09 12:17:53;;;;;;;22.60;13.30;;;20.50;14.90;;;;;;5010360;28;20428;-64
2023/10/09 12:20:31;;;;;;;16.20;12.67;;;20.50;15.10;;;;;;5012769;28;20424;-64
2023/10/09 12:23:04;;;;;;;15.50;13.73;;;20.60;14.60;;;;;;5012787;28;20787;-65
2023/10/09 12:25:35;;;;;;;17.83;11.43;;;20.60;14.60;;;;;;5012808;28;20421;-64
2023/10/09 12:28:02;;;;;;;14.07;12.57;;;20.60;15.60;;;;;;5012128;28;20834;-65
2023/10/09 12:30:37;;;;;;;18.40;14.00;;;20.70;16.60;;;;;;5012471;28;20478;-64
2023/10/09 12:33:03;;;;;;;18.63;13.60;;;20.70;16.30;;;;;;5012232;28;20471;-64
2023/10/09 12:35:33;;;;;;;17.43;13.53;;;20.80;16.50;;;;;;5012285;28;20420;-64
2023/10/09 12:38:00;;;;;;;20.27;13.77;;;20.80;15.20;;;;;;5014363;28;20177;-61
2023/10/09 12:40:30;;;;;;;20.27;14.30;;;20.80;15.20;;;;;;5013021;28;20420;-66
2023/10/09 12:42:58;;;;;;;16.87;13.30;;;20.90;15.50;;;;;;4998447;28;20440;-67
2023/10/09 12:45:32;;;;;;;19.97;13.37;;;21.00;15.20;;;;;;4997731;28;20472;-66
2023/10/09 12:48:08;;;;;;;23.40;13.63;;;21.00;15.20;;;;;;4992593;28;20457;-66
2023/10/09 12:50:35;;;;;;;14.50;13.10;;;21.10;12.10;;;;;;4992290;28;20439;-67
2023/10/09 12:53:06;;;;;;;14.77;12.70;;;21.20;12.00;;;;;;4992918;28;20475;-67
2023/10/09 12:55:41;;;;;;;14.10;12.70;;;21.20;12.80;;;;;;4993062;28;20505;-67
2023/10/09 12:58:14;;;;;;;17.77;13.13;;;21.20;13.90;;;;;;4993195;28;20424;-66
2023/10/09 13:00:48;;;;;;;14.50;13.10;;;21.30;12.00;;;;;;4993020;28;20508;-67
2023/10/09 13:03:17;;;;;;;13.63;12.40;;;21.40;6.50;;;;;;4993041;28;20424;-67
2023/10/09 13:05:58;;;;;;;13.20;12.20;;;21.50;4.00;;;;;;4992720;28;20425;-68
2023/10/09 13:08:39;;;;;;;12.73;11.63;;;21.60;1.00;;;;;;4992698;28;20425;-67
2023/10/09 13:11:10;;;;;;;12.63;11.60;;;21.70;1.00;;;;;;4992727;28;20844;-63
2023/10/09 13:13:42;;;;;;;12.30;11.30;;;21.80;1.00;;;;;;4992992;28;20472;-64
2023/10/09 13:16:14;;;;;;;14.33;13.10;;;21.90;1.00;;;;;;5003601;28;20440;-64
2023/10/09 13:18:41;;;;;;;13.10;12.00;;;21.90;1.20;;;;;;5012186;28;20784;-63
2023/10/09 13:21:07;;;;;;;12.27;11.20;;;21.90;1.70;;;;;;5012171;28;20924;-66
2023/10/09 13:23:39;;;;;;;13.00;12.00;;;21.90;1.00;;;;;;4995033;28;20539;-65
2023/10/09 13:26:43;;;;;;;14.50;11.73;;;22.00;1.00;;;;;;4992095;28;20815;-65
2023/10/09 13:29:01;;;;;;;13.70;11.80;;;22.00;1.00;;;;;;4992350;28;20425;-65
2023/10/09 13:31:27;;;;;;;14.70;13.50;;;22.10;1.30;;;;;;4992304;28;20425;-65
2023/10/09 13:33:55;;;;;;;14.33;13.23;;;22.00;1.00;;;;;;5001876;28;20500;-65
2023/10/09 13:36:26;;;;;;;15.20;13.80;;;22.20;1.00;;;;;;5010684;28;20447;-65
2023/10/09 13:38:56;;;;;;;13.67;12.30;;;22.40;1.00;;;;;;5010980;28;20412;-65
2023/10/09 13:41:25;;;;;;;15.47;14.10;;;22.40;1.00;;;;;;5011909;28;20428;-65
2023/10/09 13:43:51;;;;;;;14.97;13.57;;;22.80;1.00;;;;;;5011661;28;20432;-65
2023/10/09 13:46:18;;;;;;;14.67;13.13;;;22.90;1.00;;;;;;5011734;28;20486;-66
2023/10/09 13:48:45;;;;;;;13.00;12.07;;;23.00;1.00;;;;;;5011924;28;20497;-66
2023/10/09 13:51:17;;;;;;;13.30;12.20;;;23.30;1.00;;;;;;5011763;28;20431;-66
2023/10/09 13:53:46;;;;;;;11.90;10.90;;;23.30;1.00;;;;;;5011500;28;20948;-66
2023/10/09 13:56:20;;;;;;;13.70;12.50;;;23.30;1.00;;;;;;5011206;28;20421;-65
2023/10/09 13:58:51;;;;;;;11.40;10.30;;;23.30;1.00;;;;;;5011208;28;20444;-65
2023/10/09 14:01:36;;;;;;;16.50;11.87;;;23.40;1.00;;;;;;5011611;28;20423;-65
2023/10/09 14:04:06;;;;;;;13.20;11.50;;;23.50;1.00;;;;;;5010966;28;20783;-65
2023/10/09 14:06:31;;;;;;;11.10;10.07;;;23.50;1.00;;;;;;5011272;28;20421;-65
2023/10/09 14:08:58;;;;;;;11.23;10.13;;;23.60;1.00;;;;;;5011628;28;20725;-65
2023/10/09 14:11:25;;;;;;;10.77;9.63;;;23.50;1.00;;;;;;5011252;28;20526;-65
2023/10/09 14:13:52;;;;;;;12.27;11.10;;;23.50;1.00;;;;;;5011179;28;20975;-65
2023/10/09 14:16:23;;;;;;;10.53;9.57;;;23.40;1.00;;;;;;5011170;28;20772;-65
2023/10/09 14:19:07;;;;;;;12.43;9.70;;;23.30;1.00;;;;;;5011449;28;20420;-65
2023/10/09 14:21:37;;;;;;;11.50;10.60;;;23.30;1.00;;;;;;5010930;28;20523;-66
2023/10/09 14:24:15;;;;;;;10.30;9.40;;;23.30;1.00;;;;;;5011195;28;20430;-66
2023/10/09 14:26:41;;;;;;;15.40;10.50;;;23.20;1.00;;;;;;5010779;28;20430;-66
2023/10/09 14:29:07;;;;;;;11.00;9.60;;;23.20;1.00;;;;;;5010251;28;20416;-65
2023/10/09 14:31:38;;;;;;;12.90;11.57;;;23.10;1.00;;;;;;5011278;28;20427;-66
2023/10/09 14:34:05;;;;;;;11.13;9.87;;;23.00;1.00;;;;;;5011032;28;20464;-65
2023/10/09 14:36:33;;;;;;;13.63;12.60;;;22.90;1.00;;;;;;5010344;28;21003;-65
2023/10/09 14:39:00;;;;;;;12.20;10.90;;;22.80;1.00;;;;;;5010665;28;20420;-66
2023/10/09 14:41:27;;;;;;;12.27;11.20;;;22.80;1.00;;;;;;5010805;28;20470;-66
2023/10/09 14:43:53;;;;;;;12.10;11.00;;;22.80;1.00;;;;;;5010329;28;20431;-66
2023/10/09 14:46:25;;;;;;;11.20;10.40;;;22.80;1.00;;;;;;5010264;28;20473;-66
2023/10/09 14:48:53;;;;;;;11.47;10.47;;;22.80;1.00;;;;;;5011803;28;20432;-66
2023/10/09 14:51:26;;;;;;;11.27;10.20;;;22.80;1.00;;;;;;5010881;28;20432;-66
2023/10/09 14:53:58;;;;;;;11.47;10.37;;;22.80;1.00;;;;;;5010645;28;20551;-65
2023/10/09 14:56:30;;;;;;;11.50;10.57;;;22.80;1.00;;;;;;5010173;28;20862;-65
2023/10/09 14:59:00;;;;;;;11.20;10.27;;;22.70;1.00;;;;;;5010421;28;20424;-66
2023/10/09 15:01:30;;;;;;;10.90;9.90;;;22.60;1.00;;;;;;5010805;28;20411;-65
2023/10/09 15:03:59;;;;;;;12.53;11.30;;;22.60;1.00;;;;;;5010438;28;20936;-65
2023/10/09 15:06:27;;;;;;;13.17;11.80;;;22.50;1.00;;;;;;5010013;28;20425;-65
2023/10/09 15:08:55;;;;;;;12.73;11.73;;;22.50;1.00;;;;;;5010109;28;20515;-65
2023/10/09 15:11:25;;;;;;;12.57;11.27;;;22.40;1.00;;;;;;5012068;28;20423;-65
2023/10/09 15:13:53;;;;;;;12.57;11.10;;;22.40;1.00;;;;;;5014164;28;20460;-65
2023/10/09 15:16:21;;;;;;;14.20;12.90;;;22.30;1.00;;;;;;5014040;28;20418;-66
2023/10/09 15:18:52;;;;;;;11.70;10.70;;;22.20;1.00;;;;;;5014388;28;20420;-66
2023/10/09 15:21:18;;;;;;;12.57;11.57;;;22.10;1.00;;;;;;5014220;28;20923;-66
2023/10/09 15:23:44;;;;;;;12.67;11.57;;;22.00;1.00;;;;;;5014458;28;20862;-66
